Time;durP1;ratioP1;P1;durP2;ratioP2;P2;SDS_P1;SDS_P2;PMS_P1;PMS_P2;Temp;Humidity;BMP_temperature;BMP_pressure;BME280_temperature;BME280_humidity;BME280_pressure;Samples;Min_cycle;Max_cycle;Signal;HPM_P1;HPM_P2
2023/07/12 00:02:22;;;;;;;4.70;2.65;;;;;;;22.01;71.49;100767.56;5072846;28;20043;-60
2023/07/12 00:04:48;;;;;;;7.43;2.60;;;;;;;21.91;72.13;100764.34;5073275;28;20024;-61
2023/07/12 00:07:13;;;;;;;5.10;2.83;;;;;;;21.91;72.42;100750.91;5072955;28;20493;-61
2023/07/12 00:09:38;;;;;;;6.38;2.53;;;;;;;21.95;72.08;100757.91;5072892;28;20024;-62
2023/07/12 00:12:04;;;;;;;7.75;2.50;;;;;;;21.96;71.96;100753.41;5073105;28;20025;-61
2023/07/12 00:14:29;;;;;;;7.95;2.50;;;;;;;22.05;71.91;100753.06;5073109;28;20528;-61
2023/07/12 00:16:55;;;;;;;4.72;2.47;;;;;;;21.92;72.34;100759.84;5072718;28;20069;-61
2023/07/12 00:19:20;;;;;;;4.13;2.47;;;;;;;21.96;72.34;100775.81;5072735;28;20045;-60
2023/07/12 00:21:45;;;;;;;8.35;2.50;;;;;;;21.86;71.39;100782.47;5072769;28;20133;-60
2023/07/12 00:24:11;;;;;;;5.47;2.70;;;;;;;21.93;70.56;100796.59;5072741;28;20033;-60
2023/07/12 00:26:36;;;;;;;4.85;2.90;;;;;;;21.99;69.99;100793.66;5078490;28;20040;-60
2023/07/12 00:29:04;;;;;;;4.95;2.50;;;;;;;21.98;69.78;100800.84;5079310;28;20036;-60
2023/07/12 00:31:29;;;;;;;5.57;3.05;;;;;;;21.85;70.05;100796.88;5079283;28;20053;-61
2023/07/12 00:33:56;;;;;;;5.97;2.88;;;;;;;21.84;70.15;100811.25;5079400;28;20021;-61
2023/07/12 00:36:24;;;;;;;6.80;3.00;;;;;;;21.69;70.48;100812.69;5079328;28;20549;-61
2023/07/12 00:38:50;;;;;;;7.80;2.92;;;;;;;21.59;70.65;100815.75;5079376;28;20473;-61
2023/07/12 00:41:46;;;;;;;6.93;2.80;;;;;;;21.59;70.27;100818.44;5079165;28;20031;-61
2023/07/12 00:44:20;;;;;;;4.68;2.83;;;;;;;21.45;71.28;100818.91;5079216;28;20024;-62
2023/07/12 00:46:48;;;;;;;5.00;2.97;;;;;;;21.32;71.79;100834.59;5079165;28;20478;-61
2023/07/12 00:49:14;;;;;;;5.10;3.00;;;;;;;21.19;71.64;100833.22;5079341;28;20039;-61
2023/07/12 00:51:46;;;;;;;6.05;3.00;;;;;;;21.19;71.29;100831.38;5079337;28;20028;-60
2023/07/12 00:54:14;;;;;;;6.22;3.00;;;;;;;21.33;71.25;100838.19;5079228;28;20032;-61
2023/07/12 00:56:40;;;;;;;7.97;3.30;;;;;;;21.25;70.42;100833.91;5079159;28;20020;-61
2023/07/12 00:59:17;;;;;;;7.03;2.95;;;;;;;21.26;70.62;100841.03;5079160;28;20028;-61
2023/07/12 01:01:44;;;;;;;6.22;3.35;;;;;;;21.21;70.70;100847.50;5079362;28;20059;-61
2023/07/12 01:04:16;;;;;;;9.77;3.30;;;;;;;21.12;70.90;100850.47;5079054;28;20047;-61
2023/07/12 01:06:41;;;;;;;7.80;3.25;;;;;;;21.20;70.13;100859.19;5079454;28;20406;-61
2023/07/12 01:09:13;;;;;;;7.50;3.00;;;;;;;21.12;68.79;100866.59;5078970;28;20086;-61
2023/07/12 01:11:40;;;;;;;6.38;3.00;;;;;;;21.15;68.34;100843.16;5079070;28;20020;-62
2023/07/12 01:14:15;;;;;;;7.60;3.50;;;;;;;21.08;68.33;100864.94;5078997;28;20082;-62
2023/07/12 01:16:44;;;;;;;6.22;2.97;;;;;;;20.88;67.74;100874.50;5078876;28;20031;-61
2023/07/12 01:19:10;;;;;;;7.57;3.05;;;;;;;20.80;67.82;100852.38;5078789;28;20040;-61
2023/07/12 01:21:41;;;;;;;5.13;2.75;;;;;;;20.72;68.39;100824.88;5079097;28;20050;-61
2023/07/12 01:24:06;;;;;;;8.43;2.95;;;;;;;20.73;67.64;100826.66;5078912;28;20040;-61
2023/07/12 01:26:38;;;;;;;8.82;2.97;;;;;;;20.55;68.04;100821.84;5078986;28;20028;-59
2023/07/12 01:29:05;;;;;;;8.85;3.10;;;;;;;20.58;68.09;100830.69;5060931;28;20079;-62
2023/07/12 01:31:32;;;;;;;6.68;2.88;;;;;;;20.52;68.74;100840.75;5079132;28;20033;-60
2023/07/12 01:33:57;;;;;;;7.45;3.08;;;;;;;20.47;68.79;100839.03;5078900;28;20367;-61
2023/07/12 01:36:24;;;;;;;9.10;3.28;;;;;;;20.37;70.48;100845.59;5077875;28;20032;-60
2023/07/12 01:38:52;;;;;;;7.05;3.10;;;;;;;20.36;70.96;100822.38;5075200;28;20035;-60
2023/07/12 01:41:18;;;;;;;8.05;3.35;;;;;;;20.34;70.73;100820.66;5075556;28;20032;-60
2023/07/12 01:43:44;;;;;;;7.18;3.03;;;;;;;20.29;71.53;100830.66;5075617;28;20016;-60
2023/07/12 01:46:10;;;;;;;8.50;3.30;;;;;;;20.26;71.55;100845.06;5075448;28;20028;-62
2023/07/12 01:48:36;;;;;;;6.70;3.40;;;;;;;20.23;72.16;100829.03;5075764;28;20035;-61
2023/07/12 01:51:01;;;;;;;6.53;3.08;;;;;;;20.26;72.50;100811.03;5075744;28;20062;-61
2023/07/12 01:53:28;;;;;;;9.27;3.30;;;;;;;20.28;72.15;100802.94;5075761;28;20489;-61
2023/07/12 01:55:54;;;;;;;6.93;2.90;;;;;;;20.15;72.50;100805.09;5075318;28;20021;-62
2023/07/12 01:58:20;;;;;;;5.95;2.90;;;;;;;19.93;73.39;100799.50;5075173;28;20103;-60
2023/07/12 02:00:45;;;;;;;7.50;3.10;;;;;;;19.81;74.25;100817.72;5075073;28;20047;-61
2023/07/12 02:03:11;;;;;;;9.93;3.28;;;;;;;19.54;75.66;100804.13;5075239;28;20025;-60
2023/07/12 02:05:36;;;;;;;9.00;3.55;;;;;;;19.44;75.76;100816.00;5075173;28;20114;-61
2023/07/12 02:08:02;;;;;;;9.73;3.45;;;;;;;19.35;76.52;100806.41;5075110;28;20017;-62
2023/07/12 02:10:27;;;;;;;7.10;3.63;;;;;;;19.29;78.05;100790.50;5075361;28;20025;-61
2023/07/12 02:12:53;;;;;;;6.72;3.53;;;;;;;19.24;77.64;100804.00;5075203;28;20090;-61
2023/07/12 02:15:19;;;;;;;9.50;3.38;;;;;;;19.33;78.17;100757.34;5074855;28;20021;-60
2023/07/12 02:17:45;;;;;;;8.23;3.55;;;;;;;19.38;77.47;100768.81;5074669;28;20075;-61
2023/07/12 02:20:12;;;;;;;8.20;3.25;;;;;;;19.44;77.74;100818.66;5075235;28;20055;-61
2023/07/12 02:22:41;;;;;;;8.05;3.40;;;;;;;19.61;78.04;100842.38;5074875;28;20036;-61
2023/07/12 02:25:08;;;;;;;8.27;3.38;;;;;;;19.59;77.72;100846.88;5075043;28;20036;-60
2023/07/12 02:27:34;;;;;;;8.73;3.38;;;;;;;19.49;78.28;100843.56;5075032;28;20028;-60
2023/07/12 02:29:59;;;;;;;8.32;3.70;;;;;;;19.32;78.74;100835.97;5074681;28;20492;-60
2023/07/12 02:32:27;;;;;;;7.32;3.33;;;;;;;19.28;79.71;100853.03;5074671;28;20485;-62
2023/07/12 02:34:52;;;;;;;6.57;3.25;;;;;;;19.31;79.70;100825.28;5074905;28;20047;-61
2023/07/12 02:37:18;;;;;;;6.35;3.42;;;;;;;19.33;78.62;100793.97;5074595;28;20474;-61
2023/07/12 02:39:45;;;;;;;9.40;4.38;;;;;;;19.21;80.11;100814.78;5074518;28;20036;-60
2023/07/12 02:42:11;;;;;;;6.80;3.80;;;;;;;19.00;80.64;100820.69;5074437;28;20563;-60
2023/07/12 02:44:39;;;;;;;7.75;3.70;;;;;;;18.88;81.75;100816.50;5074680;28;20193;-60
2023/07/12 02:47:10;;;;;;;9.15;3.60;;;;;;;18.69;81.90;100824.09;5074545;28;20021;-61
2023/07/12 02:49:36;;;;;;;8.27;3.70;;;;;;;18.60;83.06;100823.41;5074357;28;20044;-61
2023/07/12 02:52:04;;;;;;;7.35;3.35;;;;;;;18.53;82.63;100814.63;5074437;28;20031;-61
2023/07/12 02:54:33;;;;;;;7.97;3.53;;;;;;;18.42;84.00;100832.72;5074411;28;20027;-60
2023/07/12 02:56:59;;;;;;;6.20;3.20;;;;;;;18.42;83.45;100820.22;5074401;28;20041;-61
2023/07/12 02:59:25;;;;;;;7.00;2.88;;;;;;;18.37;83.45;100823.88;5073865;28;20393;-59
2023/07/12 03:01:51;;;;;;;6.22;3.50;;;;;;;18.38;83.46;100831.91;5073859;28;20025;-60
2023/07/12 03:04:17;;;;;;;8.00;3.03;;;;;;;18.34;83.83;100815.94;5073980;28;20125;-61
2023/07/12 03:06:42;;;;;;;6.28;2.88;;;;;;;18.47;82.88;100831.69;5074084;28;20516;-61
2023/07/12 03:09:08;;;;;;;5.63;2.75;;;;;;;18.59;82.82;100827.88;5073891;28;20086;-60
2023/07/12 03:11:33;;;;;;;6.43;3.17;;;;;;;18.61;82.99;100833.19;5074087;28;20393;-60
2023/07/12 03:13:58;;;;;;;7.15;2.90;;;;;;;18.61;82.54;100831.38;5073872;28;20028;-61
2023/07/12 03:16:24;;;;;;;7.32;3.00;;;;;;;18.63;82.13;100842.94;5073666;28;20117;-61
2023/07/12 03:18:49;;;;;;;5.30;2.85;;;;;;;18.48;83.48;100844.16;5073462;28;20098;-60
2023/07/12 03:21:15;;;;;;;5.82;2.90;;;;;;;18.45;83.03;100852.25;5073522;28;20025;-61
2023/07/12 03:23:42;;;;;;;4.78;2.80;;;;;;;18.38;83.88;100841.72;5073604;28;20120;-61
2023/07/12 03:26:07;;;;;;;6.30;2.80;;;;;;;18.37;84.27;100850.63;5073879;28;20063;-60
2023/07/12 03:28:33;;;;;;;5.97;2.75;;;;;;;18.37;83.75;100843.53;5073391;28;20056;-61
2023/07/12 03:31:05;;;;;;;6.18;2.95;;;;;;;18.33;84.81;100854.28;5073445;28;20103;-60
2023/07/12 03:33:31;;;;;;;5.78;2.55;;;;;;;18.30;84.56;100852.59;5073410;28;20025;-60
2023/07/12 03:35:57;;;;;;;5.55;3.08;;;;;;;18.24;84.31;100853.59;5073595;28;20031;-60
2023/07/12 03:38:26;;;;;;;7.00;2.97;;;;;;;18.22;85.06;100862.56;5073621;28;20332;-60
2023/07/12 03:40:53;;;;;;;6.88;2.75;;;;;;;18.13;85.59;100855.59;5073139;28;20429;-60
2023/07/12 03:43:18;;;;;;;7.03;2.88;;;;;;;17.96;86.30;100863.97;5073048;28;20390;-60
2023/07/12 03:45:44;;;;;;;7.18;2.80;;;;;;;17.86;87.36;100862.38;5073038;28;20021;-59
2023/07/12 03:48:10;;;;;;;6.60;3.10;;;;;;;17.85;87.35;100855.25;5073076;28;20497;-61
2023/07/12 03:50:40;;;;;;;6.07;2.90;;;;;;;17.76;88.34;100871.47;5072804;28;20119;-61
2023/07/12 03:53:06;;;;;;;7.60;3.20;;;;;;;17.66;88.67;100877.88;5072457;28;20379;-60
2023/07/12 03:55:31;;;;;;;7.20;3.33;;;;;;;17.76;87.76;100876.81;5072213;28;20073;-62
2023/07/12 03:57:56;;;;;;;9.93;3.40;;;;;;;17.81;87.21;100876.72;5054473;28;20060;-60
2023/07/12 04:00:22;;;;;;;6.07;3.45;;;;;;;17.87;86.71;100881.97;5071778;28;20017;-61
2023/07/12 04:02:47;;;;;;;7.60;3.55;;;;;;;17.89;85.77;100877.47;5072430;28;20031;-60
2023/07/12 04:05:13;;;;;;;9.45;3.65;;;;;;;17.85;86.22;100889.13;5054172;28;20029;-61
2023/07/12 04:07:38;;;;;;;6.90;3.45;;;;;;;17.78;86.91;100883.03;5072293;28;20081;-59
2023/07/12 04:10:04;;;;;;;8.43;3.78;;;;;;;17.82;86.94;100884.75;5072179;28;20118;-60
2023/07/12 04:12:30;;;;;;;7.65;3.75;;;;;;;17.71;87.28;100884.00;5072128;28;20028;-61
2023/07/12 04:14:58;;;;;;;8.05;4.18;;;;;;;17.80;86.70;100885.66;5072504;28;20150;-60
2023/07/12 04:17:23;;;;;;;9.60;3.90;;;;;;;17.77;86.49;100886.59;5071758;28;20029;-60
2023/07/12 04:19:48;;;;;;;6.95;3.90;;;;;;;17.72;86.86;100889.31;5072215;28;20032;-60
2023/07/12 04:22:14;;;;;;;8.38;3.92;;;;;;;17.66;86.83;100893.91;5071998;28;20466;-60
2023/07/12 04:24:39;;;;;;;8.10;3.88;;;;;;;17.72;86.55;100897.31;5072234;28;20081;-60
2023/07/12 04:27:05;;;;;;;10.38;3.83;;;;;;;17.72;86.39;100897.31;5072185;28;20028;-60
2023/07/12 04:29:31;;;;;;;8.32;3.75;;;;;;;17.62;86.42;100884.16;5071941;28;20444;-61
2023/07/12 04:31:57;;;;;;;8.30;3.85;;;;;;;17.63;86.28;100894.81;5072128;28;20033;-61
2023/07/12 04:34:22;;;;;;;8.75;3.92;;;;;;;17.67;86.20;100892.97;5072183;28;20494;-60
2023/07/12 04:36:48;;;;;;;9.18;4.45;;;;;;;17.69;86.51;100893.84;5071839;28;20079;-61
2023/07/12 04:39:13;;;;;;;10.38;4.00;;;;;;;17.73;86.71;100904.47;5072059;28;20521;-60
2023/07/12 04:41:38;;;;;;;11.15;4.20;;;;;;;17.73;86.71;100900.91;5072175;28;20033;-61
2023/07/12 04:44:04;;;;;;;10.30;4.10;;;;;;;17.72;86.84;100896.44;5071887;28;20490;-59
2023/07/12 04:46:30;;;;;;;6.97;3.65;;;;;;;17.76;86.69;100898.19;5071882;28;20059;-61
2023/07/12 04:48:55;;;;;;;6.32;3.45;;;;;;;17.82;85.89;100890.09;5071676;28;20033;-61
2023/07/12 04:51:21;;;;;;;7.13;3.40;;;;;;;17.76;86.96;100895.53;5072144;28;20036;-59
2023/07/12 04:53:47;;;;;;;10.98;3.40;;;;;;;17.75;86.14;100900.00;5071923;28;20412;-60
2023/07/12 04:56:16;;;;;;;8.77;3.38;;;;;;;17.74;86.58;100902.69;5071945;28;20028;-60
2023/07/12 04:58:42;;;;;;;7.90;3.55;;;;;;;17.79;86.91;100899.94;5071819;28;20025;-59
2023/07/12 05:01:09;;;;;;;9.88;3.42;;;;;;;17.78;87.13;100912.44;5071925;28;20029;-60
2023/07/12 05:03:35;;;;;;;9.18;3.42;;;;;;;17.77;86.90;100900.84;5071950;28;20103;-59
2023/07/12 05:06:01;;;;;;;8.18;3.40;;;;;;;17.84;86.50;100898.06;5072030;28;20512;-60
2023/07/12 05:08:26;;;;;;;7.40;3.08;;;;;;;17.91;86.23;100905.06;5071990;28;20386;-60
2023/07/12 05:10:51;;;;;;;10.27;3.40;;;;;;;17.94;85.88;100902.31;5071686;28;20029;-61
2023/07/12 05:13:17;;;;;;;11.27;3.17;;;;;;;18.05;85.37;100911.03;5074207;28;20037;-60
2023/07/12 05:15:52;;;;;;;7.13;3.25;;;;;;;18.13;85.08;100917.13;5057556;28;20068;-60
2023/07/12 05:18:18;;;;;;;7.47;3.42;;;;;;;18.11;85.44;100913.56;5075342;28;20048;-60
2023/07/12 05:20:45;;;;;;;8.75;3.30;;;;;;;18.24;84.26;100917.81;5075352;28;20049;-60
2023/07/12 05:23:11;;;;;;;8.48;3.20;;;;;;;18.26;83.80;100920.44;5075660;28;20085;-60
2023/07/12 05:25:36;;;;;;;8.88;3.47;;;;;;;18.25;85.39;100924.91;5075358;28;20028;-61
2023/07/12 05:28:02;;;;;;;9.90;3.50;;;;;;;18.42;83.13;100921.03;5075311;28;20025;-60
2023/07/12 05:30:30;;;;;;;7.22;3.28;;;;;;;18.55;nan;100927.00;5075320;28;20082;-60
2023/07/12 05:32:55;;;;;;;9.00;3.35;;;;;;;18.52;82.78;100928.81;5075299;28;20033;-60
2023/07/12 05:35:21;;;;;;;8.00;3.42;;;;;;;18.47;83.08;100921.78;5075515;28;20067;-60
2023/07/12 05:37:48;;;;;;;9.90;3.50;;;;;;;18.43;82.51;100912.06;5075222;28;20456;-60
2023/07/12 05:40:13;;;;;;;10.18;3.38;;;;;;;18.38;82.95;100928.22;5075163;28;20017;-60
2023/07/12 05:42:41;;;;;;;8.95;3.30;;;;;;;18.50;83.55;100925.28;5074994;28;20035;-60
2023/07/12 05:45:08;;;;;;;11.63;3.75;;;;;;;18.62;82.91;100936.66;5075166;28;20035;-60
2023/07/12 05:47:33;;;;;;;9.15;3.38;;;;;;;18.72;82.16;100927.56;5075120;28;20029;-60
2023/07/12 05:49:59;;;;;;;10.00;3.30;;;;;;;18.77;81.82;100928.34;5075359;28;20032;-59
2023/07/12 05:52:24;;;;;;;6.68;3.00;;;;;;;18.88;81.52;100928.97;5075090;28;20029;-59
2023/07/12 05:54:50;;;;;;;11.98;3.55;;;;;;;18.90;82.44;100932.50;5075283;28;20358;-60
2023/07/12 05:57:16;;;;;;;10.35;3.45;;;;;;;18.89;82.03;100933.41;5074901;28;20072;-60
2023/07/12 05:59:41;;;;;;;8.55;3.50;;;;;;;18.96;80.63;100942.19;5074724;28;20060;-60
2023/07/12 06:02:12;;;;;;;12.50;3.63;;;;;;;19.08;81.05;100943.72;5074543;28;20074;-60
2023/07/12 06:04:37;;;;;;;10.65;3.40;;;;;;;19.06;79.64;100942.84;5056712;28;20040;-60
2023/07/12 06:07:02;;;;;;;8.45;3.45;;;;;;;19.08;80.52;100952.63;5074607;28;20035;-60
2023/07/12 06:09:28;;;;;;;7.57;3.05;;;;;;;19.14;79.53;100960.53;5074672;28;20025;-60
2023/07/12 06:11:53;;;;;;;10.73;3.47;;;;;;;19.14;79.64;100955.19;5056724;28;20037;-61
2023/07/12 06:14:19;;;;;;;8.00;3.33;;;;;;;19.21;79.33;100956.78;5074515;28;20523;-61
2023/07/12 06:16:44;;;;;;;12.65;3.30;;;;;;;19.21;78.68;100956.78;5074459;28;20052;-60
2023/07/12 06:19:10;;;;;;;11.48;3.47;;;;;;;19.20;78.35;100964.88;5082179;28;20056;-60
2023/07/12 06:21:35;;;;;;;10.70;3.80;;;;;;;19.17;78.96;100947.06;5076432;28;20469;-60
2023/07/12 06:24:00;;;;;;;9.85;3.30;;;;;;;19.27;79.08;100963.78;5075813;28;20032;-61
2023/07/12 06:26:26;;;;;;;8.82;3.67;;;;;;;19.31;78.56;100968.16;5094648;28;20027;-60
2023/07/12 06:28:53;;;;;;;7.82;3.50;;;;;;;19.20;77.94;100960.38;5094604;28;20042;-60
2023/07/12 06:31:18;;;;;;;7.88;3.45;;;;;;;19.15;78.49;100959.63;5094552;28;20040;-60
2023/07/12 06:33:43;;;;;;;12.85;3.60;;;;;;;19.09;78.61;100958.84;5094202;28;20430;-59
2023/07/12 06:36:09;;;;;;;9.68;3.50;;;;;;;19.11;79.08;100971.31;5076246;28;20078;-60
2023/07/12 06:38:34;;;;;;;7.35;3.55;;;;;;;19.06;79.15;100975.91;5094228;28;20024;-60
2023/07/12 06:41:00;;;;;;;9.02;3.67;;;;;;;19.06;79.10;100991.97;5094182;28;20107;-60
2023/07/12 06:43:25;;;;;;;9.35;3.42;;;;;;;19.09;78.41;100993.69;5094039;28;20024;-61
2023/07/12 06:45:51;;;;;;;9.30;3.72;;;;;;;19.00;78.26;100995.63;5094023;28;20078;-60
2023/07/12 06:48:16;;;;;;;8.70;3.60;;;;;;;18.98;79.17;101002.84;5093873;28;20115;-61
2023/07/12 06:50:42;;;;;;;12.23;4.07;;;;;;;18.83;78.25;100994.25;5094044;28;20089;-60
2023/07/12 06:53:07;;;;;;;8.85;3.33;;;;;;;18.87;78.48;100998.63;5094076;28;20409;-60
2023/07/12 06:55:32;;;;;;;11.70;3.70;;;;;;;18.87;78.78;101012.00;5093923;28;20024;-60
2023/07/12 06:57:58;;;;;;;7.93;3.60;;;;;;;18.88;78.52;101000.38;5094181;28;20028;-60
2023/07/12 07:00:23;;;;;;;9.68;3.53;;;;;;;18.86;79.49;101011.13;5093569;28;20097;-60
2023/07/12 07:02:49;;;;;;;9.88;3.45;;;;;;;18.88;79.55;101008.41;5075499;28;20099;-60
2023/07/12 07:05:14;;;;;;;6.97;3.42;;;;;;;18.83;80.03;101029.06;5093678;28;20057;-60
2023/07/12 07:07:39;;;;;;;10.63;3.58;;;;;;;18.80;79.41;101026.44;5093596;28;20020;-60
2023/07/12 07:10:06;;;;;;;14.40;3.90;;;;;;;18.67;79.28;101034.69;5093636;28;20028;-60
2023/07/12 07:12:31;;;;;;;12.00;3.42;;;;;;;18.69;79.69;101032.88;5086639;28;20043;-60
2023/07/12 07:14:56;;;;;;;8.98;3.25;;;;;;;18.67;79.38;101036.47;5073359;28;20036;-60
2023/07/12 07:17:22;;;;;;;11.85;3.63;;;;;;;18.61;80.11;101032.13;5055084;28;20028;-59
2023/07/12 07:19:47;;;;;;;11.68;3.70;;;;;;;18.63;80.01;101022.28;5073588;28;20540;-60
2023/07/12 07:22:13;;;;;;;8.95;3.30;;;;;;;18.71;80.65;101033.75;5073218;28;20028;-60
2023/07/12 07:24:38;;;;;;;11.15;3.50;;;;;;;18.80;79.39;101026.44;5073381;28;20021;-60
2023/07/12 07:27:04;;;;;;;12.68;3.70;;;;;;;18.91;78.53;101025.31;5073352;28;20044;-60
2023/07/12 07:29:30;;;;;;;7.00;3.50;;;;;;;19.06;78.71;101033.91;5054869;28;20516;-61
2023/07/12 07:31:55;;;;;;;9.45;3.72;;;;;;;19.29;77.56;101047.72;5055034;28;20036;-60
2023/07/12 07:34:21;;;;;;;10.68;3.70;;;;;;;19.62;75.47;101042.56;5072551;28;20108;-60
2023/07/12 07:36:46;;;;;;;8.85;3.55;;;;;;;19.80;74.94;101057.31;5072532;28;20025;-60
2023/07/12 07:39:11;;;;;;;11.23;3.33;;;;;;;19.86;74.65;101052.66;5073030;28;20409;-60
2023/07/12 07:41:37;;;;;;;11.27;3.53;;;;;;;19.80;73.08;101058.19;5072873;28;20386;-62
2023/07/12 07:44:03;;;;;;;10.63;3.70;;;;;;;19.72;74.08;101060.16;5055184;28;20470;-60
2023/07/12 07:46:28;;;;;;;10.25;3.30;;;;;;;19.70;74.94;101056.66;5072786;28;20067;-61
2023/07/12 07:48:54;;;;;;;10.38;3.22;;;;;;;19.74;74.04;101053.88;5072667;28;20508;-60
2023/07/12 07:51:19;;;;;;;10.70;3.60;;;;;;;19.72;71.76;101063.72;5072593;28;20082;-61
2023/07/12 07:53:44;;;;;;;8.65;3.25;;;;;;;19.77;72.43;101058.25;5072737;28;20029;-59
2023/07/12 07:56:11;;;;;;;8.70;3.38;;;;;;;19.92;73.61;101060.56;5072728;28;20477;-61
2023/07/12 07:58:36;;;;;;;10.63;3.50;;;;;;;20.20;73.53;101065.25;5072554;28;20035;-61
2023/07/12 08:01:02;;;;;;;11.13;3.70;;;;;;;20.37;72.62;101075.53;5072443;28;20029;-60
2023/07/12 08:03:29;;;;;;;9.13;3.42;;;;;;;20.40;71.08;101067.41;5072372;28;20528;-61
2023/07/12 08:06:03;;;;;;;10.07;3.53;;;;;;;20.43;70.27;101076.28;5072380;28;20021;-60
2023/07/12 08:08:29;;;;;;;13.95;3.47;;;;;;;20.40;70.44;101076.34;5072509;28;20036;-62
2023/07/12 08:10:55;;;;;;;10.70;3.33;;;;;;;20.32;71.53;101072.97;5072302;28;20025;-60
2023/07/12 08:13:20;;;;;;;11.25;3.45;;;;;;;20.33;71.04;101074.75;5072747;28;20025;-61
2023/07/12 08:15:45;;;;;;;11.38;3.80;;;;;;;20.26;70.81;101081.19;5072355;28;20107;-60
2023/07/12 08:18:12;;;;;;;9.50;3.50;;;;;;;20.23;70.51;101075.91;5072010;28;20049;-62
2023/07/12 08:20:40;;;;;;;10.57;3.50;;;;;;;20.21;69.38;101080.41;5072152;28;20486;-60
2023/07/12 08:23:06;;;;;;;9.45;3.67;;;;;;;20.15;69.21;101081.47;5072188;28;20535;-60
2023/07/12 08:25:32;;;;;;;7.82;3.17;;;;;;;20.23;68.94;101095.56;5071970;28;20115;-61
2023/07/12 08:27:57;;;;;;;8.63;3.30;;;;;;;20.20;69.46;101094.75;5072246;28;20101;-60
2023/07/12 08:30:23;;;;;;;10.52;3.70;;;;;;;20.21;68.59;101097.44;5072021;28;20394;-61
2023/07/12 08:32:48;;;;;;;11.38;3.83;;;;;;;20.28;68.72;101092.75;5071984;28;20024;-61
2023/07/12 08:35:14;;;;;;;11.05;3.20;;;;;;;20.35;68.92;101086.34;5072258;28;20103;-61
2023/07/12 08:37:40;;;;;;;7.28;3.25;;;;;;;20.51;68.89;101086.81;5072445;28;20025;-61
2023/07/12 08:40:06;;;;;;;12.18;3.72;;;;;;;20.58;70.09;101099.16;5072188;28;20055;-61
2023/07/12 08:42:38;;;;;;;12.52;3.55;;;;;;;20.64;69.64;101092.75;5071786;28;20020;-61
2023/07/12 08:45:18;;;;;;;8.40;3.90;;;;;;;20.56;69.85;101102.84;5072347;28;20028;-61
2023/07/12 08:47:44;;;;;;;12.15;3.80;;;;;;;20.64;69.34;101101.72;5075426;28;20440;-61
2023/07/12 08:50:14;;;;;;;9.90;3.83;;;;;;;20.68;69.35;101103.38;5076217;28;20027;-61
2023/07/12 08:52:40;;;;;;;12.10;4.47;;;;;;;20.59;68.62;101102.75;5076206;28;20024;-60
2023/07/12 08:55:16;;;;;;;11.90;3.85;;;;;;;20.60;69.60;101102.72;5058186;28;20082;-61
2023/07/12 08:57:42;;;;;;;10.32;3.80;;;;;;;20.56;69.43;101102.84;5076018;28;20342;-59
2023/07/12 09:00:15;;;;;;;12.77;3.90;;;;;;;20.57;69.11;101110.84;5057679;28;20031;-60
2023/07/12 09:02:40;;;;;;;12.13;4.22;;;;;;;20.53;68.47;101110.97;5075559;28;20017;-59
2023/07/12 09:05:14;;;;;;;12.30;4.28;;;;;;;20.50;68.47;101103.88;5057764;28;20036;-60
2023/07/12 09:07:48;;;;;;;9.50;4.10;;;;;;;20.46;67.75;101110.19;5075787;28;20032;-60
2023/07/12 09:10:30;;;;;;;10.02;3.80;;;;;;;20.45;68.04;101117.38;5075712;28;20520;-59
2023/07/12 09:12:59;;;;;;;19.10;4.10;;;;;;;20.47;67.71;101115.53;5075537;28;20031;-59
2023/07/12 09:15:32;;;;;;;9.95;3.85;;;;;;;20.50;67.78;101114.59;5075481;28;20113;-59
2023/07/12 09:17:58;;;;;;;9.25;3.70;;;;;;;20.72;67.15;101113.09;5075132;28;20052;-60
2023/07/12 09:20:29;;;;;;;14.05;3.88;;;;;;;21.18;66.33;101110.94;5075245;28;20025;-59
2023/07/12 09:22:55;;;;;;;8.05;3.60;;;;;;;21.61;64.97;101115.09;5057951;28;20025;-60
2023/07/12 09:25:24;;;;;;;8.88;3.50;;;;;;;22.13;63.61;101103.56;5074917;28;20035;-60
2023/07/12 09:27:49;;;;;;;7.57;3.67;;;;;;;22.42;61.80;101102.59;5075146;28;20016;-60
2023/07/12 09:30:22;;;;;;;8.40;3.20;;;;;;;22.55;60.92;101102.19;5056891;28;20025;-60
2023/07/12 09:32:49;;;;;;;8.98;3.28;;;;;;;22.63;61.25;101103.66;5075091;28;20501;-59
2023/07/12 09:35:39;;;;;;;9.35;3.20;;;;;;;22.83;60.00;101092.19;5075038;28;20043;-60
2023/07/12 09:38:09;;;;;;;6.57;3.03;;;;;;;23.15;59.27;101095.53;5073490;28;20023;-60
2023/07/12 09:40:45;;;;;;;9.82;3.70;;;;;;;23.18;57.98;101092.72;5073102;28;20028;-60
2023/07/12 09:43:20;;;;;;;9.85;3.47;;;;;;;23.26;58.35;101097.84;5073630;28;20032;-58
2023/07/12 09:45:49;;;;;;;10.50;3.50;;;;;;;23.37;56.99;101093.78;5073421;28;20021;-59
2023/07/12 09:48:34;;;;;;;9.48;3.42;;;;;;;23.54;56.99;101086.84;5073568;28;20024;-59
2023/07/12 09:51:22;;;;;;;8.25;3.20;;;;;;;23.65;56.22;101090.94;5073628;28;20021;-59
2023/07/12 09:53:56;;;;;;;10.05;3.58;;;;;;;23.74;55.90;101095.09;5040550;28;20128;-59
2023/07/12 09:56:37;;;;;;;9.68;3.45;;;;;;;23.61;56.39;101096.47;5074692;28;20505;-58
2023/07/12 09:59:12;;;;;;;10.35;3.42;;;;;;;23.46;55.46;101092.53;5073840;28;20112;-60
2023/07/12 10:01:48;;;;;;;10.82;3.50;;;;;;;23.55;55.98;101089.47;5074775;28;20103;-58
2023/07/12 10:04:55;;;;;;;7.72;3.10;;;;;;;23.87;56.19;101079.28;5074810;28;20060;-60
2023/07/12 10:07:28;;;;;;;9.13;3.40;;;;;;;24.19;54.80;101080.63;4973559;28;20101;-60
2023/07/12 10:09:55;;;;;;;8.70;3.40;;;;;;;24.36;53.58;101066.41;5062212;28;20055;-58
2023/07/12 10:12:26;;;;;;;6.60;2.90;;;;;;;24.31;51.89;101071.13;5074763;28;20028;-58
2023/07/12 10:14:54;;;;;;;9.30;3.40;;;;;;;24.38;51.93;101064.56;5074682;28;20470;-60
2023/07/12 10:17:38;;;;;;;11.63;3.28;;;;;;;24.39;52.60;101066.31;5074440;28;20017;-59
2023/07/12 10:20:05;;;;;;;8.48;3.10;;;;;;;24.58;51.88;101069.09;5074589;28;20056;-59
2023/07/12 10:22:38;;;;;;;8.85;3.17;;;;;;;24.78;53.95;101065.50;5074470;28;20040;-58
2023/07/12 10:25:17;;;;;;;8.25;2.63;;;;;;;24.76;50.97;101068.28;5074528;28;20086;-58
2023/07/12 10:27:48;;;;;;;9.40;2.90;;;;;;;24.61;51.05;101075.22;5074406;28;20494;-60
2023/07/12 10:30:18;;;;;;;7.63;2.80;;;;;;;24.78;51.05;101062.81;5074166;28;20117;-59
2023/07/12 10:32:48;;;;;;;5.93;2.65;;;;;;;24.93;50.49;101071.09;5074036;28;20032;-58
2023/07/12 10:35:38;;;;;;;8.05;2.75;;;;;;;25.10;50.14;101081.19;5074161;28;20039;-59
2023/07/12 10:38:11;;;;;;;6.90;3.00;;;;;;;25.16;49.59;101074.63;5074196;28;20535;-58
2023/07/12 10:40:40;;;;;;;13.18;3.05;;;;;;;25.35;49.88;101075.53;5073985;28;20050;-58
2023/07/12 10:43:13;;;;;;;13.13;2.75;;;;;;;25.14;48.26;101081.94;5074054;28;20386;-59
2023/07/12 10:45:39;;;;;;;10.82;2.60;;;;;;;25.21;49.20;101091.50;5074028;28;20085;-59
2023/07/12 10:48:07;;;;;;;9.13;2.60;;;;;;;25.18;49.29;101083.50;5073921;28;20032;-59
2023/07/12 10:50:36;;;;;;;10.57;2.90;;;;;;;25.35;48.94;101082.72;5073918;28;20021;-59
2023/07/12 10:53:15;;;;;;;7.53;2.75;;;;;;;25.44;48.21;101085.91;5073805;28;20096;-59
2023/07/12 10:55:49;;;;;;;11.05;2.83;;;;;;;25.56;48.36;101075.44;5055618;28;20035;-58
2023/07/12 10:58:20;;;;;;;8.73;2.97;;;;;;;25.61;47.99;101079.69;5073699;28;20158;-58
2023/07/12 11:01:03;;;;;;;9.75;3.20;;;;;;;25.31;49.04;101081.13;5073445;28;20024;-58
2023/07/12 11:03:40;;;;;;;7.93;2.78;;;;;;;25.25;49.41;101081.41;5073642;28;20025;-58
2023/07/12 11:06:22;;;;;;;8.65;2.70;;;;;;;25.46;49.08;101088.53;5073743;28;20036;-59
2023/07/12 11:09:01;;;;;;;7.60;2.53;;;;;;;25.84;47.96;101092.13;5073480;28;20044;-59
2023/07/12 11:11:49;;;;;;;6.38;2.60;;;;;;;26.01;47.84;101090.44;5073584;28;20029;-58
2023/07/12 11:14:23;;;;;;;7.45;2.72;;;;;;;25.65;47.78;101088.50;5073676;28;20029;-59
2023/07/12 11:16:52;;;;;;;7.30;2.60;;;;;;;25.55;47.20;101079.97;5073104;28;20029;-59
2023/07/12 11:19:38;;;;;;;6.50;2.67;;;;;;;25.74;45.99;101088.09;5073106;28;20052;-57
2023/07/12 11:22:44;;;;;;;9.60;2.60;;;;;;;26.21;46.84;101093.91;5073212;28;20381;-59
2023/07/12 11:25:27;;;;;;;9.77;2.88;;;;;;;26.38;45.52;101086.72;5072854;28;20031;-59
2023/07/12 11:27:53;;;;;;;8.65;2.63;;;;;;;26.40;43.50;101079.41;5073104;28;20025;-59
2023/07/12 11:30:27;;;;;;;9.75;2.88;;;;;;;26.79;45.47;101081.00;5073000;28;20070;-59